Time;durP1;ratioP1;P1;durP2;ratioP2;P2;SDS_P1;SDS_P2;PMS_P1;PMS_P2;Temp;Humidity;BMP_temperature;BMP_pressure;BME280_temperature;BME280_humidity;BME280_pressure;Samples;Min_cycle;Max_cycle;Signal;HPM_P1;HPM_P2
2022/09/24 03:01:04;;;;;;;5.80;1.50;;;14.90;94.30;;;;;;6010117;23;93885;31
2022/09/24 03:03:30;;;;;;;2.55;1.30;;;15.00;94.40;;;;;;4892537;28;92230;-76
2022/09/24 03:05:55;;;;;;;4.53;1.83;;;15.00;94.50;;;;;;4892065;28;92316;-75
2022/09/24 03:08:23;;;;;;;4.03;1.90;;;15.00;96.20;;;;;;4895909;28;91436;-76
2022/09/24 03:10:50;;;;;;;5.43;2.00;;;14.90;97.50;;;;;;4894441;28;90977;-75
2022/09/24 03:13:17;;;;;;;4.95;2.03;;;14.90;98.60;;;;;;4892437;28;93810;-75
2022/09/24 03:15:45;;;;;;;3.10;1.60;;;14.80;98.60;;;;;;4888471;28;92015;-78
2022/09/24 03:18:12;;;;;;;6.07;1.75;;;15.00;97.80;;;;;;4886536;28;92298;-78
2022/09/24 03:20:37;;;;;;;5.00;2.10;;;15.10;97.70;;;;;;4895849;28;92513;-76
2022/09/24 03:23:03;;;;;;;4.78;2.10;;;15.10;98.90;;;;;;4893953;28;92043;-76
2022/09/24 03:25:29;;;;;;;5.32;1.58;;;14.90;99.90;;;;;;4893158;28;93084;-77
2022/09/24 03:27:54;;;;;;;4.15;1.35;;;14.90;99.90;;;;;;4896259;28;92450;-77
2022/09/24 03:33:05;;;;;;;2.28;1.38;;;15.00;99.90;;;;;;4894107;28;91467;-77
2022/09/24 03:35:31;;;;;;;3.92;1.83;;;14.90;99.60;;;;;;4894994;28;91145;-77
2022/09/24 03:37:56;;;;;;;2.72;1.35;;;14.90;99.40;;;;;;4895964;28;92500;-77
2022/09/24 03:40:23;;;;;;;2.67;1.60;;;14.80;99.20;;;;;;4894105;28;91556;-76
2022/09/24 03:42:48;;;;;;;3.25;1.40;;;14.80;97.80;;;;;;4894731;28;93225;-77
2022/09/24 03:45:14;;;;;;;3.72;1.15;;;14.70;96.50;;;;;;4898074;28;93141;-77
2022/09/24 03:47:41;;;;;;;3.75;1.30;;;14.70;95.20;;;;;;4893856;28;91792;-78
2022/09/24 03:50:09;;;;;;;4.88;1.40;;;14.40;95.50;;;;;;4892720;28;93027;-78
2022/09/24 03:52:35;;;;;;;2.20;0.93;;;14.30;95.30;;;;;;4897831;28;92939;-79
2022/09/24 03:55:01;;;;;;;2.78;1.30;;;14.30;94.90;;;;;;4895840;28;91651;-78
2022/09/24 03:57:26;;;;;;;4.07;0.55;;;14.40;94.70;;;;;;4898337;28;91379;-79
2022/09/24 03:59:53;;;;;;;3.08;1.33;;;14.40;94.80;;;;;;4899049;28;90633;-79
2022/09/24 04:02:19;;;;;;;2.53;1.05;;;14.50;95.00;;;;;;4898193;28;92348;-83
2022/09/24 04:04:44;;;;;;;5.10;1.10;;;14.30;95.70;;;;;;4915468;28;91503;-84
2022/09/24 04:07:10;;;;;;;6.63;1.08;;;14.20;95.50;;;;;;4915091;28;92265;-78
2022/09/24 04:09:36;;;;;;;2.65;1.15;;;14.20;95.10;;;;;;4911178;28;91355;-85
2022/09/24 04:12:02;;;;;;;1.83;1.05;;;14.30;94.80;;;;;;4902842;28;93464;-82
2022/09/24 04:14:28;;;;;;;3.17;0.98;;;14.30;94.30;;;;;;4908073;28;92272;-79
2022/09/24 04:16:54;;;;;;;3.72;1.30;;;14.20;94.00;;;;;;4904335;28;91717;-76
2022/09/24 04:19:19;;;;;;;2.65;1.33;;;14.00;95.10;;;;;;4915238;28;91344;-76
2022/09/24 04:21:45;;;;;;;2.90;1.55;;;14.00;95.60;;;;;;4905755;28;93700;-76
2022/09/24 04:24:11;;;;;;;5.13;1.73;;;13.90;96.20;;;;;;4904174;28;93414;-76
2022/09/24 04:26:37;;;;;;;3.78;1.40;;;13.90;96.60;;;;;;4902707;28;91227;-76
2022/09/24 04:29:03;;;;;;;3.63;1.50;;;13.90;96.00;;;;;;4906218;28;91812;-77
2022/09/24 04:31:28;;;;;;;3.33;1.65;;;13.80;96.10;;;;;;4912842;28;93532;-76
2022/09/24 04:33:54;;;;;;;3.83;1.70;;;13.80;96.20;;;;;;4906773;28;92585;-76
2022/09/24 04:36:20;;;;;;;3.05;1.70;;;13.80;95.80;;;;;;4910870;28;91946;-76
2022/09/24 04:38:46;;;;;;;3.53;1.13;;;13.80;96.20;;;;;;4893547;28;91629;-74
2022/09/24 04:41:15;;;;;;;3.95;1.65;;;13.70;95.90;;;;;;4905648;28;91725;-74
2022/09/24 04:43:41;;;;;;;3.10;1.50;;;13.50;96.50;;;;;;4916638;28;91623;-74
2022/09/24 04:46:08;;;;;;;4.35;1.50;;;13.40;96.50;;;;;;4905398;28;91559;-74
2022/09/24 04:48:37;;;;;;;5.32;1.83;;;13.40;96.60;;;;;;4898569;28;90752;-74
2022/09/24 04:51:04;;;;;;;7.55;1.05;;;13.50;96.10;;;;;;4911214;28;92823;-74
2022/09/24 04:53:31;;;;;;;3.78;1.13;;;13.50;96.10;;;;;;4914735;28;91252;-76
2022/09/24 04:55:58;;;;;;;3.95;1.38;;;13.60;95.50;;;;;;4906038;28;92181;-75
2022/09/24 04:58:24;;;;;;;3.53;1.27;;;13.70;95.60;;;;;;4907844;28;91680;-75
2022/09/24 05:00:50;;;;;;;5.97;1.20;;;13.80;95.60;;;;;;4913711;28;92013;-75
2022/09/24 05:03:16;;;;;;;2.28;1.02;;;13.90;95.10;;;;;;4898708;28;91911;-76
2022/09/24 05:05:42;;;;;;;3.10;1.35;;;14.00;94.90;;;;;;4904225;28;92683;-76
2022/09/24 05:08:07;;;;;;;4.97;1.45;;;14.00;94.60;;;;;;4912051;28;91648;-76
2022/09/24 05:10:33;;;;;;;3.33;1.27;;;14.10;94.80;;;;;;4910805;28;91952;-74
2022/09/24 05:12:59;;;;;;;3.92;1.17;;;14.10;94.60;;;;;;4909733;28;92850;-75
2022/09/24 05:15:25;;;;;;;2.72;1.40;;;14.10;94.50;;;;;;4903084;28;92689;-76
2022/09/24 05:17:51;;;;;;;3.45;1.20;;;14.20;93.50;;;;;;4907638;28;91997;-76
2022/09/24 05:20:17;;;;;;;2.97;1.17;;;14.30;92.30;;;;;;4904693;28;93405;-77
2022/09/24 05:22:44;;;;;;;3.10;1.27;;;14.40;92.00;;;;;;4901435;28;92055;-79
2022/09/24 05:25:11;;;;;;;3.95;1.05;;;14.40;92.10;;;;;;4912249;28;91595;-75
2022/09/24 05:27:42;;;;;;;3.50;1.25;;;14.50;91.90;;;;;;4906395;28;91428;-83
2022/09/24 05:30:08;;;;;;;3.80;1.00;;;14.50;90.90;;;;;;4908900;28;91634;-77
2022/09/24 05:32:35;;;;;;;3.78;1.10;;;14.50;91.10;;;;;;4904374;28;91538;-77
2022/09/24 05:35:01;;;;;;;6.15;0.63;;;14.50;91.90;;;;;;4903048;28;92027;-78
2022/09/24 05:37:27;;;;;;;3.33;1.00;;;14.50;92.50;;;;;;4909235;28;91158;-77
2022/09/24 05:39:53;;;;;;;2.22;0.90;;;14.50;92.50;;;;;;4906564;28;91578;-77
2022/09/24 05:42:19;;;;;;;5.28;1.10;;;14.50;93.20;;;;;;4907306;28;93285;-77
2022/09/24 05:44:45;;;;;;;5.30;1.05;;;14.50;94.40;;;;;;4902303;28;93316;-75
2022/09/24 05:47:10;;;;;;;3.63;1.83;;;14.40;93.90;;;;;;4905356;28;92086;-77
2022/09/24 05:49:37;;;;;;;5.22;1.23;;;14.40;95.40;;;;;;4903874;28;93480;-75
2022/09/24 05:52:02;;;;;;;4.70;1.85;;;14.30;97.00;;;;;;4913112;28;92123;-77
2022/09/24 05:54:28;;;;;;;5.28;2.17;;;14.20;98.80;;;;;;4911712;28;91370;-76
2022/09/24 05:56:54;;;;;;;4.47;1.80;;;14.00;99.90;;;;;;4913555;28;91796;-75
2022/09/24 05:59:20;;;;;;;3.33;1.90;;;14.00;99.90;;;;;;4914144;28;91589;-73
2022/09/24 06:01:47;;;;;;;4.63;1.80;;;13.80;99.90;;;;;;4915161;28;91029;-75
2022/09/24 06:04:13;;;;;;;6.03;2.10;;;13.70;99.90;;;;;;4907132;28;92213;-76
2022/09/24 06:06:39;;;;;;;5.15;1.70;;;13.80;99.90;;;;;;4912297;28;91486;-77
2022/09/24 06:09:07;;;;;;;9.32;2.17;;;13.70;99.90;;;;;;4907137;28;93830;-76
2022/09/24 06:11:33;;;;;;;7.28;1.98;;;13.80;99.90;;;;;;4901698;28;92302;-75
2022/09/24 06:14:04;;;;;;;5.05;1.65;;;13.80;99.90;;;;;;4904262;28;92179;-74
2022/09/24 06:16:32;;;;;;;6.07;2.13;;;13.80;99.90;;;;;;4904164;28;91813;-76
2022/09/24 06:18:58;;;;;;;7.85;2.35;;;13.90;99.90;;;;;;4902558;28;92269;-76
2022/09/24 06:21:23;;;;;;;4.18;1.48;;;13.60;99.90;;;;;;4906457;28;92043;-76
2022/09/24 06:23:49;;;;;;;9.43;2.25;;;13.60;99.90;;;;;;4909268;28;91339;-76
2022/09/24 06:26:15;;;;;;;5.40;2.33;;;13.60;99.90;;;;;;4905704;28;90663;-76
2022/09/24 06:28:41;;;;;;;5.22;2.10;;;13.50;99.90;;;;;;4899398;28;92276;-74
2022/09/24 06:31:08;;;;;;;5.20;1.88;;;13.30;99.90;;;;;;4899525;28;92896;-77
2022/09/24 06:33:34;;;;;;;4.80;2.25;;;13.40;99.90;;;;;;4904790;28;92632;-76
2022/09/24 06:36:01;;;;;;;7.75;2.83;;;13.50;99.90;;;;;;4906824;28;91777;-76
2022/09/24 06:38:28;;;;;;;6.85;3.28;;;13.40;99.90;;;;;;4899385;28;93432;-76
2022/09/24 06:40:59;;;;;;;5.05;2.95;;;13.20;99.90;;;;;;4898751;28;92042;-76
2022/09/24 06:43:26;;;;;;;8.07;3.42;;;13.10;99.90;;;;;;4906094;28;91510;-76
2022/09/24 06:45:54;;;;;;;5.00;3.00;;;12.80;99.90;;;;;;4900940;28;91898;-76
2022/09/24 06:48:21;;;;;;;4.30;2.33;;;12.90;99.90;;;;;;4905725;28;91459;-76
2022/09/24 06:50:46;;;;;;;4.63;2.25;;;13.00;99.90;;;;;;4905992;28;91958;-76
2022/09/24 06:53:12;;;;;;;4.47;2.20;;;13.00;99.90;;;;;;4903192;28;92417;-76
2022/09/24 06:55:38;;;;;;;4.60;2.13;;;13.10;99.90;;;;;;4887500;28;91738;-76
2022/09/24 06:58:08;;;;;;;5.82;2.08;;;13.20;99.90;;;;;;4895714;28;93284;-76
2022/09/24 07:00:37;;;;;;;6.53;1.85;;;13.30;99.90;;;;;;4908181;28;92852;-77
2022/09/24 07:03:03;;;;;;;4.25;1.90;;;13.30;99.90;;;;;;4897198;28;92135;-76
2022/09/24 07:05:29;;;;;;;5.13;2.28;;;13.40;99.90;;;;;;4904041;28;92783;-76
2022/09/24 07:07:55;;;;;;;5.13;2.38;;;13.50;99.90;;;;;;4905283;28;94728;-76
2022/09/24 07:10:23;;;;;;;5.35;2.65;;;13.60;99.90;;;;;;4906199;28;92295;-76
2022/09/24 07:12:48;;;;;;;5.85;2.35;;;13.80;99.90;;;;;;4903744;28;91972;-76
2022/09/24 07:15:14;;;;;;;6.00;2.22;;;13.90;99.90;;;;;;4898766;28;90686;-78
2022/09/24 07:17:40;;;;;;;6.25;2.03;;;14.00;99.90;;;;;;4901295;28;92361;-78
2022/09/24 07:20:06;;;;;;;6.15;2.60;;;14.10;99.90;;;;;;4904968;28;92187;-78
2022/09/24 07:22:37;;;;;;;5.30;2.58;;;14.10;99.90;;;;;;4901295;28;93167;-78
2022/09/24 07:25:02;;;;;;;5.05;2.05;;;14.10;99.90;;;;;;4904653;28;91926;-78
2022/09/24 07:27:28;;;;;;;5.95;2.72;;;14.10;99.90;;;;;;4906729;28;91365;-79
2022/09/24 07:29:54;;;;;;;8.65;2.70;;;13.90;99.90;;;;;;4903363;28;91893;-77
2022/09/24 07:32:19;;;;;;;6.43;2.70;;;13.70;99.90;;;;;;4905001;28;92612;-77
2022/09/24 07:34:45;;;;;;;5.68;2.53;;;13.80;99.90;;;;;;4904507;28;92825;-79
2022/09/24 07:37:11;;;;;;;6.00;2.45;;;14.00;99.90;;;;;;4903532;28;93308;-81
2022/09/24 07:39:37;;;;;;;6.95;2.78;;;14.10;99.90;;;;;;4905025;28;92020;-79
2022/09/24 07:42:04;;;;;;;5.45;2.10;;;14.00;99.90;;;;;;4899980;28;91680;-78
2022/09/24 07:44:30;;;;;;;5.65;2.58;;;14.00;99.90;;;;;;4905035;28;91805;-79
2022/09/24 07:46:57;;;;;;;7.55;2.65;;;14.20;99.90;;;;;;4908534;28;92672;-78
2022/09/24 07:49:23;;;;;;;4.22;1.77;;;14.20;99.90;;;;;;4898949;28;93026;-78
2022/09/24 07:51:49;;;;;;;5.85;2.88;;;14.10;99.90;;;;;;4901627;28;92151;-78
2022/09/24 07:54:15;;;;;;;6.13;2.30;;;14.20;99.90;;;;;;4900515;28;91366;-79
2022/09/24 07:56:41;;;;;;;5.22;2.10;;;14.20;99.90;;;;;;4905948;28;92323;-77
2022/09/24 07:59:09;;;;;;;6.00;2.35;;;14.30;99.90;;;;;;4896697;28;91845;-79
2022/09/24 08:01:36;;;;;;;8.57;3.28;;;14.40;99.90;;;;;;4908198;28;92060;-79
2022/09/24 08:04:03;;;;;;;8.07;3.10;;;14.30;99.90;;;;;;4903463;28;90657;-78
2022/09/24 08:06:32;;;;;;;7.30;2.80;;;14.20;99.90;;;;;;4912704;28;92313;-78
2022/09/24 08:08:58;;;;;;;6.88;2.58;;;14.30;99.90;;;;;;4910071;28;91405;-79
2022/09/24 08:11:24;;;;;;;5.03;2.67;;;14.40;99.90;;;;;;4910276;28;92247;-79
2022/09/24 08:13:50;;;;;;;6.40;2.92;;;14.50;99.90;;;;;;4910463;28;92077;-79
2022/09/24 08:16:16;;;;;;;10.13;3.13;;;14.60;99.90;;;;;;4912270;28;91628;-79
2022/09/24 08:18:42;;;;;;;6.68;2.47;;;14.50;99.90;;;;;;4905880;28;92012;-79
2022/09/24 08:21:10;;;;;;;8.27;2.33;;;14.40;99.90;;;;;;4906044;28;92109;-80
2022/09/24 08:23:38;;;;;;;7.57;3.70;;;14.50;99.90;;;;;;4900868;28;91483;-79
2022/09/24 08:26:04;;;;;;;6.88;3.40;;;14.40;99.90;;;;;;4912498;28;92063;-79
2022/09/24 08:28:30;;;;;;;5.55;2.78;;;14.30;99.90;;;;;;4897795;28;91465;-79
2022/09/24 08:31:00;;;;;;;9.75;2.85;;;14.30;99.90;;;;;;4915891;28;91259;-79
2022/09/24 08:33:27;;;;;;;5.63;2.83;;;14.50;99.90;;;;;;4910358;28;92816;-80
2022/09/24 08:35:53;;;;;;;5.05;2.53;;;14.70;99.90;;;;;;4908637;28;93371;-80
2022/09/24 08:38:22;;;;;;;4.63;2.55;;;14.80;99.90;;;;;;4900500;28;92785;-78
2022/09/24 08:41:05;;;;;;;49.33;5.72;;;15.00;99.90;;;;;;4915416;28;91385;-77
2022/09/24 08:43:52;;;;;;;35.97;4.35;;;15.10;99.90;;;;;;4916039;28;92008;-80
2022/09/24 08:49:11;;;;;;;5.13;2.60;;;15.50;99.90;;;;;;4905774;28;92206;-79
2022/09/24 08:51:59;;;;;;;4.85;2.35;;;15.80;99.90;;;;;;4911886;28;91264;-79
2022/09/24 08:54:27;;;;;;;14.57;1.95;;;16.10;99.90;;;;;;4909438;28;91073;-79
2022/09/24 08:56:55;;;;;;;5.82;2.08;;;16.20;99.90;;;;;;4910538;28;92263;-79
2022/09/24 08:59:29;;;;;;;57.00;4.97;;;16.60;99.90;;;;;;4905463;28;91741;-77
2022/09/24 09:01:58;;;;;;;7.53;1.88;;;17.00;99.90;;;;;;4909035;28;93117;-79
2022/09/24 09:04:41;;;;;;;4.40;1.88;;;17.40;99.90;;;;;;4902913;28;91374;-79
2022/09/24 09:07:20;;;;;;;9.32;1.65;;;17.70;98.50;;;;;;4902589;28;92340;-78
2022/09/24 09:09:53;;;;;;;10.63;3.50;;;17.80;98.30;;;;;;4904841;28;91303;-77
2022/09/24 09:12:33;;;;;;;10.52;3.03;;;17.80;96.90;;;;;;4908067;28;91843;-81
2022/09/24 09:15:15;;;;;;;8.25;2.10;;;17.70;95.80;;;;;;4906761;28;91717;-80
2022/09/24 09:17:49;;;;;;;5.80;2.38;;;17.60;96.30;;;;;;4902952;28;92878;-82
2022/09/24 09:20:30;;;;;;;5.40;2.22;;;17.80;95.60;;;;;;4909137;28;92008;-80
2022/09/24 09:23:00;;;;;;;4.80;2.55;;;18.50;92.20;;;;;;4910964;28;93351;-82
2022/09/24 09:25:30;;;;;;;6.60;1.98;;;19.50;92.10;;;;;;4907660;28;91555;-82
2022/09/24 09:27:59;;;;;;;9.18;2.42;;;21.40;88.50;;;;;;4907456;28;93983;-82
2022/09/24 09:30:25;;;;;;;6.25;2.60;;;22.30;76.50;;;;;;4907569;28;92137;-82
2022/09/24 09:33:12;;;;;;;6.03;2.45;;;21.80;77.80;;;;;;4907721;28;91727;-81
2022/09/24 09:36:19;;;;;;;3.90;2.50;;;21.50;78.10;;;;;;4906321;28;91525;-79
2022/09/24 09:39:14;;;;;;;6.38;3.05;;;21.20;77.90;;;;;;4889093;28;95634;-83
2022/09/24 09:41:43;;;;;;;4.93;2.78;;;20.80;80.20;;;;;;4905389;28;91693;-79
2022/09/24 09:44:25;;;;;;;6.90;3.22;;;20.40;82.60;;;;;;4905160;28;91831;-83
2022/09/24 09:46:56;;;;;;;6.10;3.53;;;20.40;81.40;;;;;;4903847;28;90517;-79
2022/09/24 09:49:28;;;;;;;18.00;8.48;;;20.50;82.60;;;;;;4902729;28;91683;-82
2022/09/24 09:51:56;;;;;;;57.55;26.13;;;20.50;83.00;;;;;;4902460;28;92415;-79
2022/09/24 09:54:36;;;;;;;10.02;5.03;;;20.40;82.60;;;;;;4897928;28;92389;-82
2022/09/24 09:57:02;;;;;;;5.35;3.60;;;20.30;81.40;;;;;;4906078;28;92476;-79
2022/09/24 09:59:32;;;;;;;4.30;2.30;;;20.10;83.20;;;;;;4904937;28;92187;-81
2022/09/24 10:01:58;;;;;;;3.78;2.13;;;20.10;82.20;;;;;;4902080;28;92122;-79
2022/09/24 10:04:34;;;;;;;3.65;1.98;;;20.10;82.70;;;;;;4899278;28;91714;-83
2022/09/24 10:07:15;;;;;;;3.38;1.85;;;20.20;82.90;;;;;;4914070;28;91718;-80
2022/09/24 10:09:42;;;;;;;3.10;2.00;;;20.30;83.50;;;;;;4912696;28;94813;-82
2022/09/24 10:12:23;;;;;;;3.53;2.00;;;20.20;82.00;;;;;;4913741;28;93025;-82
2022/09/24 10:14:59;;;;;;;7.30;2.25;;;19.90;82.10;;;;;;4906416;28;91762;-83
2022/09/24 10:17:34;;;;;;;4.40;2.22;;;19.90;81.20;;;;;;4911254;28;91377;-81
2022/09/24 10:20:01;;;;;;;3.10;1.67;;;19.30;83.70;;;;;;4900111;28;93262;-82
2022/09/24 10:22:28;;;;;;;3.42;2.20;;;18.90;86.20;;;;;;4915917;28;92661;-79
2022/09/24 10:24:56;;;;;;;3.25;1.70;;;18.80;87.60;;;;;;4914736;28;93577;-78
2022/09/24 10:27:40;;;;;;;2.78;1.90;;;19.00;85.10;;;;;;4912592;28;93160;-82
2022/09/24 10:30:33;;;;;;;4.00;2.20;;;19.10;84.90;;;;;;4906043;28;92356;-81
2022/09/24 10:33:04;;;;;;;4.97;2.03;;;19.20;85.50;;;;;;4910042;28;92262;-82
2022/09/24 10:35:34;;;;;;;3.53;1.55;;;19.40;85.00;;;;;;4913281;28;91998;-81
2022/09/24 10:38:01;;;;;;;3.53;1.58;;;19.60;82.90;;;;;;4916742;28;91105;-82
2022/09/24 10:40:36;;;;;;;3.22;1.42;;;19.80;80.60;;;;;;4910922;28;91979;-82
2022/09/24 10:43:03;;;;;;;3.95;1.70;;;19.60;79.90;;;;;;4912407;28;91675;-81
2022/09/24 10:46:10;;;;;;;3.90;1.77;;;19.30;81.50;;;;;;4909227;28;92285;-81
2022/09/24 10:48:44;;;;;;;4.05;1.45;;;18.90;83.60;;;;;;4910860;28;91295;-79
2022/09/24 10:51:18;;;;;;;6.43;1.85;;;18.60;85.60;;;;;;4908399;28;92253;-79
2022/09/24 10:54:05;;;;;;;3.85;1.60;;;18.50;87.70;;;;;;4903662;28;91373;-80
2022/09/24 10:56:43;;;;;;;3.95;1.63;;;18.80;86.30;;;;;;4906937;28;92710;-81
2022/09/24 10:59:32;;;;;;;3.63;1.83;;;19.00;86.00;;;;;;4903190;28;91378;-81
2022/09/24 11:02:29;;;;;;;1.90;0.80;;;18.90;84.30;;;;;;4900301;28;92372;-82
2022/09/24 11:04:59;;;;;;;3.05;1.70;;;19.20;84.00;;;;;;4900367;28;92418;-82
2022/09/24 11:07:24;;;;;;;;;;;19.60;84.00;;;;;;4910865;28;91590;-80
2022/09/24 11:10:09;;;;;;;2.70;1.67;;;19.80;82.40;;;;;;4904094;28;92150;-83
2022/09/24 11:12:54;;;;;;;5.03;1.27;;;20.00;82.60;;;;;;4906232;28;94043;-81
2022/09/24 11:15:22;;;;;;;3.78;1.58;;;20.00;80.00;;;;;;4907878;28;93695;-80
2022/09/24 11:18:11;;;;;;;3.03;1.33;;;19.80;79.00;;;;;;4908126;28;91681;-80
2022/09/24 11:20:42;;;;;;;3.60;1.75;;;19.40;80.50;;;;;;4854142;28;92549;-82
2022/09/24 11:23:39;;;;;;;7.70;2.35;;;19.10;80.70;;;;;;4906464;28;92237;-82
2022/09/24 11:26:11;;;;;;;3.42;1.40;;;18.80;83.10;;;;;;4906578;28;91930;-79
2022/09/24 11:29:34;;;;;;;3.33;1.50;;;18.70;84.40;;;;;;4902868;28;91965;-81
2022/09/24 11:32:05;;;;;;;3.83;2.05;;;18.90;83.70;;;;;;4833489;29;90618;-78
2022/09/24 11:34:55;;;;;;;3.75;1.45;;;18.90;83.90;;;;;;4833652;29;92339;-82
2022/09/24 11:37:42;;;;;;;4.18;1.92;;;18.80;84.90;;;;;;4883383;28;92482;-82
2022/09/24 11:40:20;;;;;;;3.08;1.92;;;19.00;84.00;;;;;;4912865;28;92448;-82
2022/09/24 11:43:32;;;;;;;4.32;2.05;;;19.00;83.70;;;;;;4905448;28;92229;-80
2022/09/24 11:46:31;;;;;;;3.78;1.88;;;19.20;82.70;;;;;;4889307;28;92144;-83
2022/09/24 11:49:18;;;;;;;3.10;1.73;;;19.30;82.40;;;;;;4903489;28;92475;-81
2022/09/24 11:52:01;;;;;;;2.88;1.33;;;19.00;83.20;;;;;;4908683;28;91459;-76
2022/09/24 11:54:55;;;;;;;2.72;1.60;;;18.90;83.70;;;;;;4906368;28;91931;-75
2022/09/24 11:57:31;;;;;;;5.53;1.92;;;19.00;83.90;;;;;;4905244;28;94057;-75
2022/09/24 12:00:30;;;;;;;4.10;1.60;;;19.00;83.70;;;;;;4910789;28;91877;-75
2022/09/24 12:03:13;;;;;;;2.90;1.30;;;19.40;80.80;;;;;;4895537;28;91934;-75
2022/09/24 12:05:42;;;;;;;4.32;2.00;;;19.50;79.10;;;;;;4910923;28;91922;-76
2022/09/24 12:08:19;;;;;;;2.75;1.83;;;19.40;80.20;;;;;;4913444;28;93444;-75
2022/09/24 12:10:57;;;;;;;3.05;1.70;;;19.30;81.40;;;;;;4915441;28;92090;-78
2022/09/24 12:13:47;;;;;;;4.25;1.60;;;19.60;80.00;;;;;;4916148;28;91306;-76
2022/09/24 12:16:30;;;;;;;3.30;1.38;;;19.80;82.00;;;;;;4909892;28;92164;-76
2022/09/24 12:18:55;;;;;;;;;;;19.80;79.20;;;;;;4915099;28;92122;-76
2022/09/24 12:21:28;;;;;;;3.08;1.25;;;19.90;78.00;;;;;;4911910;28;91914;-76
2022/09/24 12:24:01;;;;;;;2.85;1.60;;;20.20;77.20;;;;;;4914998;28;92040;-76
2022/09/24 12:26:30;;;;;;;4.22;1.60;;;20.20;76.80;;;;;;4911352;28;90954;-76
2022/09/24 12:35:01;;;;;;;4.03;1.98;;;19.30;81.20;;;;;;4906859;28;93003;-75
2022/09/24 12:37:34;;;;;;;2.92;1.23;;;19.50;80.90;;;;;;4914274;28;91980;-75
2022/09/24 12:40:20;;;;;;;3.10;1.65;;;19.20;80.50;;;;;;4914675;28;92236;-75
2022/09/24 12:42:50;;;;;;;3.53;1.83;;;19.20;81.90;;;;;;4915790;28;92405;-76
2022/09/24 12:45:21;;;;;;;3.30;1.75;;;19.10;81.90;;;;;;4914243;28;91958;-76
2022/09/24 12:47:54;;;;;;;2.78;1.55;;;19.20;81.90;;;;;;4915246;28;92516;-75
2022/09/24 12:50:29;;;;;;;4.03;1.33;;;18.80;81.80;;;;;;4908084;28;92143;-78
2022/09/24 12:52:55;;;;;;;3.30;1.50;;;18.50;82.50;;;;;;4905392;28;92024;-78
2022/09/24 12:55:29;;;;;;;4.63;1.63;;;18.20;84.80;;;;;;4915459;28;92060;-78
2022/09/24 12:58:00;;;;;;;4.35;2.03;;;18.10;85.40;;;;;;4898671;28;91813;-77
2022/09/24 13:00:40;;;;;;;3.28;1.75;;;17.90;87.30;;;;;;4911525;28;93468;-78
2022/09/24 13:03:26;;;;;;;3.90;2.35;;;17.70;88.50;;;;;;4914739;28;92879;-77
2022/09/24 13:05:52;;;;;;;3.25;1.63;;;17.90;88.10;;;;;;4909220;28;91378;-76
2022/09/24 13:08:21;;;;;;;4.30;1.73;;;18.10;87.40;;;;;;4911747;28;91803;-74
2022/09/24 13:10:59;;;;;;;3.85;2.10;;;18.00;88.30;;;;;;4898699;28;92270;-81
2022/09/24 13:13:27;;;;;;;4.25;2.17;;;17.70;88.20;;;;;;4914954;28;91369;-78
2022/09/24 13:16:06;;;;;;;4.18;1.80;;;17.70;89.70;;;;;;4910405;28;91785;-81
2022/09/24 13:18:34;;;;;;;5.03;2.15;;;17.70;88.90;;;;;;4913727;28;90948;-75
2022/09/24 13:21:04;;;;;;;4.10;1.75;;;17.70;90.20;;;;;;4916449;28;92737;-79
2022/09/24 13:23:34;;;;;;;4.82;2.00;;;17.70;89.40;;;;;;4914665;28;91934;-75
2022/09/24 13:26:06;;;;;;;5.32;1.95;;;17.80;88.90;;;;;;4912489;28;92556;-77
2022/09/24 13:29:03;;;;;;;4.43;2.20;;;17.70;89.50;;;;;;4914861;28;91411;-79
2022/09/24 13:31:58;;;;;;;3.60;1.73;;;17.70;88.80;;;;;;4913963;28;92356;-78
2022/09/24 13:34:26;;;;;;;2.75;1.60;;;17.70;87.50;;;;;;4915109;28;91901;-79
2022/09/24 13:37:16;;;;;;;3.83;2.10;;;17.70;87.60;;;;;;4902120;28;91756;-80
2022/09/24 13:39:50;;;;;;;3.40;2.00;;;17.80;87.90;;;;;;4910980;28;92545;-79
2022/09/24 13:42:36;;;;;;;3.10;1.60;;;18.00;89.80;;;;;;4911504;28;92812;-77
2022/09/24 13:45:06;;;;;;;4.03;1.92;;;18.00;89.80;;;;;;4915971;28;92067;-78
2022/09/24 13:47:48;;;;;;;2.53;1.35;;;17.80;88.90;;;;;;4904923;28;92147;-77
2022/09/24 13:50:23;;;;;;;3.65;1.95;;;17.80;88.80;;;;;;4914575;28;92022;-78
2022/09/24 13:52:52;;;;;;;3.53;2.10;;;17.90;89.10;;;;;;4909812;28;93265;-77
2022/09/24 13:55:27;;;;;;;3.00;1.70;;;17.80;89.70;;;;;;4907122;28;92159;-78
2022/09/24 13:57:54;;;;;;;2.88;1.08;;;17.80;89.30;;;;;;4910944;28;91405;-78
2022/09/24 14:00:26;;;;;;;3.28;1.80;;;17.70;87.70;;;;;;4908746;28;91355;-79
2022/09/24 14:03:22;;;;;;;4.20;1.90;;;17.70;87.40;;;;;;4912857;28;91605;-77
2022/09/24 14:05:50;;;;;;;5.03;2.50;;;17.60;90.10;;;;;;4910356;28;94220;-79
2022/09/24 14:08:20;;;;;;;5.10;2.25;;;17.60;90.50;;;;;;4909281;28;92300;-78
2022/09/24 14:10:49;;;;;;;5.60;1.92;;;17.40;91.20;;;;;;4909534;28;91994;-78
2022/09/24 14:13:20;;;;;;;;;;;17.30;91.40;;;;;;4905219;28;91523;-76
2022/09/24 14:16:08;;;;;;;3.97;2.00;;;17.30;91.70;;;;;;4918601;28;92152;-78
2022/09/24 14:18:36;;;;;;;6.35;1.85;;;17.30;91.80;;;;;;4911184;28;92451;-78
2022/09/24 14:21:11;;;;;;;4.35;2.13;;;17.50;91.80;;;;;;4912500;28;93370;-78
2022/09/24 14:23:48;;;;;;;5.18;2.08;;;17.60;91.20;;;;;;4902680;28;92395;-78
2022/09/24 14:26:32;;;;;;;4.32;1.88;;;17.60;91.40;;;;;;4905901;28;92099;-78
2022/09/24 14:29:02;;;;;;;3.60;1.80;;;17.50;91.40;;;;;;4913362;28;91838;-78
2022/09/24 14:31:28;;;;;;;5.30;2.17;;;17.70;91.70;;;;;;4915688;28;92130;-79
2022/09/24 14:33:54;;;;;;;4.03;2.38;;;17.60;91.10;;;;;;4908345;28;92819;-79
2022/09/24 14:36:26;;;;;;;7.22;2.17;;;17.60;90.90;;;;;;4907710;28;91124;-78
2022/09/24 14:39:03;;;;;;;3.97;1.95;;;17.70;90.70;;;;;;4914150;28;91505;-78
2022/09/24 14:41:33;;;;;;;4.13;2.00;;;17.70;90.60;;;;;;4902616;28;93341;-78
2022/09/24 14:44:06;;;;;;;3.63;2.00;;;17.60;90.50;;;;;;4915164;28;93177;-79
2022/09/24 14:46:37;;;;;;;3.80;2.15;;;17.50;91.20;;;;;;4913725;28;93199;-79
2022/09/24 14:49:21;;;;;;;4.25;2.00;;;17.40;91.10;;;;;;4913258;28;91917;-78
2022/09/24 14:52:24;;;;;;;4.10;2.35;;;17.50;90.60;;;;;;4908133;28;91321;-77
2022/09/24 14:55:19;;;;;;;6.57;3.00;;;17.70;90.90;;;;;;4897563;28;92177;-76
2022/09/24 14:57:49;;;;;;;4.47;2.15;;;17.80;90.90;;;;;;4908632;28;92076;-76
2022/09/24 15:00:19;;;;;;;4.13;1.95;;;17.90;89.70;;;;;;4909507;28;92115;-76
2022/09/24 15:02:50;;;;;;;4.22;2.58;;;17.80;90.50;;;;;;4910496;28;90627;-78
2022/09/24 15:05:16;;;;;;;3.67;2.38;;;17.60;91.60;;;;;;4917779;28;92648;-77
2022/09/24 15:07:42;;;;;;;4.15;2.33;;;17.50;91.10;;;;;;4915751;28;91258;-77
2022/09/24 15:10:20;;;;;;;5.78;2.30;;;17.50;91.40;;;;;;4914359;28;92820;-77
2022/09/24 15:12:48;;;;;;;3.65;2.22;;;17.50;91.70;;;;;;4911831;28;92129;-77
2022/09/24 15:15:15;;;;;;;3.75;2.10;;;17.30;92.00;;;;;;4915345;28;93370;-79
2022/09/24 15:17:42;;;;;;;3.63;1.80;;;17.30;91.60;;;;;;4914072;28;91789;-77
2022/09/24 15:20:10;;;;;;;4.13;1.92;;;17.30;91.40;;;;;;4890230;28;91983;-80
2022/09/24 15:22:36;;;;;;;4.28;1.67;;;17.20;91.80;;;;;;4912999;28;91953;-79
2022/09/24 15:25:02;;;;;;;3.28;2.25;;;17.20;92.10;;;;;;4906166;28;92384;-75
2022/09/24 15:27:30;;;;;;;3.83;2.13;;;17.40;92.30;;;;;;4903930;28;91255;-77
2022/09/24 15:29:58;;;;;;;2.55;1.65;;;17.50;91.10;;;;;;4908232;28;91718;-79
2022/09/24 15:32:33;;;;;;;3.25;1.80;;;17.50;91.30;;;;;;4907311;28;91327;-77
2022/09/24 15:35:01;;;;;;;3.92;1.90;;;17.40;91.40;;;;;;4907421;28;93659;-77
2022/09/24 15:37:28;;;;;;;3.33;1.75;;;17.40;90.90;;;;;;4897093;28;92727;-77
2022/09/24 15:40:03;;;;;;;3.80;2.30;;;17.40;90.40;;;;;;4902088;28;91468;-78
2022/09/24 15:42:29;;;;;;;4.60;2.10;;;17.20;90.70;;;;;;4915788;28;91797;-79
2022/09/24 15:44:56;;;;;;;4.80;2.10;;;17.20;91.10;;;;;;4915644;28;92807;-78
2022/09/24 15:47:22;;;;;;;3.65;2.10;;;17.30;91.10;;;;;;4908084;28;92189;-79
2022/09/24 15:49:49;;;;;;;4.38;1.65;;;17.40;91.70;;;;;;4910493;28;92158;-79
2022/09/24 15:52:24;;;;;;;5.60;2.15;;;17.40;91.40;;;;;;4909101;28;90571;-79
2022/09/24 15:54:51;;;;;;;3.28;1.77;;;17.40;91.40;;;;;;4909019;28;91828;-79
2022/09/24 15:57:17;;;;;;;3.38;2.00;;;17.10;91.20;;;;;;4906798;28;91843;-77
2022/09/24 15:59:42;;;;;;;4.85;2.53;;;17.20;90.70;;;;;;4908257;28;93482;-77
2022/09/24 16:02:17;;;;;;;4.05;2.35;;;17.10;91.70;;;;;;4903407;28;91341;-77
2022/09/24 16:04:43;;;;;;;4.30;2.45;;;17.00;92.00;;;;;;4909530;28;91745;-77
2022/09/24 16:07:08;;;;;;;5.00;2.28;;;16.80;92.50;;;;;;4906311;28;91926;-77
2022/09/24 16:09:34;;;;;;;3.45;2.13;;;16.40;93.50;;;;;;4908355;28;91735;-77
2022/09/24 16:12:00;;;;;;;4.18;2.38;;;16.50;93.50;;;;;;4902266;28;91898;-77
2022/09/24 16:14:26;;;;;;;12.10;7.40;;;16.70;93.50;;;;;;4905186;28;92013;-77
2022/09/24 16:16:52;;;;;;;5.95;3.60;;;16.70;92.90;;;;;;4902338;28;91945;-77
2022/09/24 16:19:18;;;;;;;4.65;2.97;;;16.70;93.30;;;;;;4907626;28;91967;-76
2022/09/24 16:21:43;;;;;;;4.78;1.85;;;16.40;94.90;;;;;;4907578;28;92044;-76